sensor_id;sensor_type;location;lat;lon;timestamp;P1;durP1;ratioP1;P2;durP2;ratioP2
60612;SDS011;46443;59.792;17.626;2022-12-22T00:00:17;16.60;;;5.00;;
60612;SDS011;46443;59.792;17.626;2022-12-22T00:03:03;16.00;;;4.20;;
60612;SDS011;46443;59.792;17.626;2022-12-22T00:05:52;15.00;;;4.17;;
60612;SDS011;46443;59.792;17.626;2022-12-22T00:08:37;14.60;;;4.20;;
60612;SDS011;46443;59.792;17.626;2022-12-22T00:11:21;18.43;;;4.13;;
60612;SDS011;46443;59.792;17.626;2022-12-22T00:14:07;14.33;;;4.00;;
60612;SDS011;46443;59.792;17.626;2022-12-22T00:16:52;12.43;;;4.37;;
60612;SDS011;46443;59.792;17.626;2022-12-22T00:19:36;14.40;;;4.13;;
60612;SDS011;46443;59.792;17.626;2022-12-22T00:22:21;17.23;;;3.77;;
60612;SDS011;46443;59.792;17.626;2022-12-22T00:25:06;12.00;;;3.90;;
60612;SDS011;46443;59.792;17.626;2022-12-22T00:27:52;12.67;;;3.70;;
60612;SDS011;46443;59.792;17.626;2022-12-22T00:30:37;10.73;;;3.77;;
60612;SDS011;46443;59.792;17.626;2022-12-22T00:33:21;12.60;;;3.97;;
60612;SDS011;46443;59.792;17.626;2022-12-22T00:36:06;13.87;;;3.57;;
60612;SDS011;46443;59.792;17.626;2022-12-22T00:38:53;19.53;;;4.40;;
60612;SDS011;46443;59.792;17.626;2022-12-22T00:41:38;16.20;;;4.53;;
60612;SDS011;46443;59.792;17.626;2022-12-22T00:44:22;18.50;;;4.83;;
60612;SDS011;46443;59.792;17.626;2022-12-22T00:47:19;15.07;;;3.70;;
60612;SDS011;46443;59.792;17.626;2022-12-22T00:50:07;12.23;;;3.70;;
60612;SDS011;46443;59.792;17.626;2022-12-22T00:52:52;13.37;;;3.93;;
60612;SDS011;46443;59.792;17.626;2022-12-22T00:55:37;14.73;;;3.60;;
60612;SDS011;46443;59.792;17.626;2022-12-22T00:58:22;17.83;;;4.23;;
60612;SDS011;46443;59.792;17.626;2022-12-22T01:01:07;12.77;;;3.33;;
60612;SDS011;46443;59.792;17.626;2022-12-22T01:03:53;12.83;;;3.63;;
60612;SDS011;46443;59.792;17.626;2022-12-22T01:06:37;10.80;;;3.83;;
60612;SDS011;46443;59.792;17.626;2022-12-22T01:09:22;8.80;;;3.00;;
60612;SDS011;46443;59.792;17.626;2022-12-22T01:12:14;16.17;;;3.63;;
60612;SDS011;46443;59.792;17.626;2022-12-22T01:14:59;11.33;;;3.47;;
60612;SDS011;46443;59.792;17.626;2022-12-22T01:17:44;9.70;;;3.47;;
60612;SDS011;46443;59.792;17.626;2022-12-22T01:20:29;17.93;;;3.80;;
60612;SDS011;46443;59.792;17.626;2022-12-22T01:23:14;11.10;;;3.80;;
60612;SDS011;46443;59.792;17.626;2022-12-22T01:25:59;10.57;;;3.23;;
60612;SDS011;46443;59.792;17.626;2022-12-22T01:28:43;11.63;;;3.70;;
60612;SDS011;46443;59.792;17.626;2022-12-22T01:31:29;10.03;;;3.57;;
60612;SDS011;46443;59.792;17.626;2022-12-22T01:34:14;10.77;;;3.40;;
60612;SDS011;46443;59.792;17.626;2022-12-22T01:36:59;10.47;;;3.37;;
60612;SDS011;46443;59.792;17.626;2022-12-22T01:39:44;14.97;;;4.03;;
60612;SDS011;46443;59.792;17.626;2022-12-22T01:42:30;16.70;;;3.10;;
60612;SDS011;46443;59.792;17.626;2022-12-22T01:48:01;8.50;;;2.63;;
60612;SDS011;46443;59.792;17.626;2022-12-22T01:50:45;12.50;;;3.47;;
60612;SDS011;46443;59.792;17.626;2022-12-22T01:53:30;10.73;;;3.13;;
60612;SDS011;46443;59.792;17.626;2022-12-22T01:56:15;11.73;;;3.00;;
60612;SDS011;46443;59.792;17.626;2022-12-22T01:59:01;6.40;;;2.60;;
60612;SDS011;46443;59.792;17.626;2022-12-22T02:01:47;9.67;;;3.07;;
60612;SDS011;46443;59.792;17.626;2022-12-22T02:04:34;9.17;;;2.70;;
60612;SDS011;46443;59.792;17.626;2022-12-22T02:07:27;8.53;;;3.07;;
60612;SDS011;46443;59.792;17.626;2022-12-22T02:13:11;10.10;;;3.20;;
60612;SDS011;46443;59.792;17.626;2022-12-22T02:19:16;6.77;;;2.97;;
60612;SDS011;46443;59.792;17.626;2022-12-22T02:22:14;9.83;;;3.40;;
60612;SDS011;46443;59.792;17.626;2022-12-22T02:25:06;10.40;;;3.28;;
60612;SDS011;46443;59.792;17.626;2022-12-22T02:27:54;11.30;;;3.17;;
60612;SDS011;46443;59.792;17.626;2022-12-22T02:30:40;9.90;;;2.90;;
60612;SDS011;46443;59.792;17.626;2022-12-22T02:33:25;8.67;;;2.80;;
60612;SDS011;46443;59.792;17.626;2022-12-22T02:36:12;7.47;;;2.83;;
60612;SDS011;46443;59.792;17.626;2022-12-22T02:47:42;8.47;;;3.20;;
60612;SDS011;46443;59.792;17.626;2022-12-22T02:50:38;8.17;;;2.97;;
60612;SDS011;46443;59.792;17.626;2022-12-22T02:53:24;12.50;;;3.60;;
60612;SDS011;46443;59.792;17.626;2022-12-22T02:56:09;9.03;;;2.73;;
60612;SDS011;46443;59.792;17.626;2022-12-22T02:58:55;8.80;;;3.23;;
60612;SDS011;46443;59.792;17.626;2022-12-22T03:01:40;10.67;;;3.20;;
60612;SDS011;46443;59.792;17.626;2022-12-22T03:04:25;6.93;;;2.60;;
60612;SDS011;46443;59.792;17.626;2022-12-22T03:07:09;7.03;;;2.77;;
60612;SDS011;46443;59.792;17.626;2022-12-22T03:09:54;8.13;;;3.10;;
60612;SDS011;46443;59.792;17.626;2022-12-22T03:12:38;13.83;;;2.90;;
60612;SDS011;46443;59.792;17.626;2022-12-22T03:15:23;8.07;;;2.80;;
60612;SDS011;46443;59.792;17.626;2022-12-22T03:18:09;7.20;;;3.03;;
60612;SDS011;46443;59.792;17.626;2022-12-22T03:20:54;10.37;;;3.23;;
60612;SDS011;46443;59.792;17.626;2022-12-22T03:23:39;6.93;;;2.60;;
60612;SDS011;46443;59.792;17.626;2022-12-22T03:26:24;8.50;;;3.07;;
60612;SDS011;46443;59.792;17.626;2022-12-22T03:28:51;9.87;;;3.20;;
60612;SDS011;46443;59.792;17.626;2022-12-22T03:31:17;9.87;;;3.17;;
60612;SDS011;46443;59.792;17.626;2022-12-22T03:33:43;8.83;;;2.63;;
60612;SDS011;46443;59.792;17.626;2022-12-22T03:36:09;9.90;;;2.73;;
60612;SDS011;46443;59.792;17.626;2022-12-22T03:38:35;9.67;;;2.60;;
60612;SDS011;46443;59.792;17.626;2022-12-22T03:41:01;9.50;;;2.57;;
60612;SDS011;46443;59.792;17.626;2022-12-22T03:43:27;8.30;;;2.73;;
60612;SDS011;46443;59.792;17.626;2022-12-22T03:46:13;7.57;;;2.90;;
60612;SDS011;46443;59.792;17.626;2022-12-22T03:49:00;8.70;;;2.50;;
60612;SDS011;46443;59.792;17.626;2022-12-22T03:54:02;9.27;;;2.87;;
60612;SDS011;46443;59.792;17.626;2022-12-22T03:56:28;12.53;;;2.60;;
60612;SDS011;46443;59.792;17.626;2022-12-22T03:58:54;7.90;;;2.87;;
60612;SDS011;46443;59.792;17.626;2022-12-22T04:01:20;6.23;;;2.70;;
60612;SDS011;46443;59.792;17.626;2022-12-22T04:03:47;5.80;;;2.27;;
60612;SDS011;46443;59.792;17.626;2022-12-22T04:06:13;7.83;;;2.50;;
60612;SDS011;46443;59.792;17.626;2022-12-22T04:08:39;6.83;;;3.07;;
60612;SDS011;46443;59.792;17.626;2022-12-22T04:11:06;6.43;;;2.50;;
60612;SDS011;46443;59.792;17.626;2022-12-22T04:13:50;6.13;;;2.83;;
60612;SDS011;46443;59.792;17.626;2022-12-22T04:16:16;6.77;;;3.17;;
60612;SDS011;46443;59.792;17.626;2022-12-22T04:18:43;6.20;;;2.77;;
60612;SDS011;46443;59.792;17.626;2022-12-22T04:21:09;6.43;;;2.73;;
60612;SDS011;46443;59.792;17.626;2022-12-22T04:23:35;7.50;;;2.80;;
60612;SDS011;46443;59.792;17.626;2022-12-22T04:26:01;6.20;;;2.50;;
60612;SDS011;46443;59.792;17.626;2022-12-22T04:28:27;8.53;;;2.80;;
60612;SDS011;46443;59.792;17.626;2022-12-22T04:30:53;6.83;;;2.63;;
60612;SDS011;46443;59.792;17.626;2022-12-22T04:33:19;6.87;;;2.63;;
60612;SDS011;46443;59.792;17.626;2022-12-22T04:35:45;5.80;;;2.43;;
60612;SDS011;46443;59.792;17.626;2022-12-22T04:38:11;7.67;;;2.60;;
60612;SDS011;46443;59.792;17.626;2022-12-22T04:40:37;7.70;;;2.30;;
60612;SDS011;46443;59.792;17.626;2022-12-22T04:43:03;5.53;;;2.50;;
60612;SDS011;46443;59.792;17.626;2022-12-22T04:45:29;4.83;;;2.20;;
60612;SDS011;46443;59.792;17.626;2022-12-22T04:47:55;4.50;;;2.30;;
60612;SDS011;46443;59.792;17.626;2022-12-22T04:50:21;6.27;;;2.20;;
60612;SDS011;46443;59.792;17.626;2022-12-22T04:52:47;5.23;;;2.50;;
60612;SDS011;46443;59.792;17.626;2022-12-22T04:55:13;6.50;;;2.30;;
60612;SDS011;46443;59.792;17.626;2022-12-22T04:57:40;7.67;;;2.40;;
60612;SDS011;46443;59.792;17.626;2022-12-22T05:00:06;10.10;;;3.07;;
60612;SDS011;46443;59.792;17.626;2022-12-22T05:02:32;6.83;;;2.60;;
60612;SDS011;46443;59.792;17.626;2022-12-22T05:04:58;5.27;;;2.30;;
60612;SDS011;46443;59.792;17.626;2022-12-22T05:07:25;6.57;;;2.87;;
60612;SDS011;46443;59.792;17.626;2022-12-22T05:09:51;4.80;;;2.10;;
60612;SDS011;46443;59.792;17.626;2022-12-22T05:12:17;6.17;;;2.50;;
60612;SDS011;46443;59.792;17.626;2022-12-22T05:15:12;7.60;;;2.37;;
60612;SDS011;46443;59.792;17.626;2022-12-22T05:17:38;3.97;;;2.30;;
60612;SDS011;46443;59.792;17.626;2022-12-22T05:20:04;5.70;;;2.70;;
60612;SDS011;46443;59.792;17.626;2022-12-22T05:22:31;5.37;;;2.60;;
60612;SDS011;46443;59.792;17.626;2022-12-22T05:24:57;6.50;;;2.90;;
60612;SDS011;46443;59.792;17.626;2022-12-22T05:27:23;4.90;;;2.50;;
60612;SDS011;46443;59.792;17.626;2022-12-22T05:29:49;8.73;;;2.70;;
60612;SDS011;46443;59.792;17.626;2022-12-22T05:32:15;9.40;;;2.70;;
60612;SDS011;46443;59.792;17.626;2022-12-22T05:34:41;6.87;;;2.70;;
60612;SDS011;46443;59.792;17.626;2022-12-22T05:37:07;5.53;;;2.40;;
60612;SDS011;46443;59.792;17.626;2022-12-22T05:39:33;4.33;;;2.40;;
60612;SDS011;46443;59.792;17.626;2022-12-22T05:41:59;5.13;;;2.73;;
60612;SDS011;46443;59.792;17.626;2022-12-22T05:44:25;7.00;;;2.47;;
60612;SDS011;46443;59.792;17.626;2022-12-22T05:46:51;7.20;;;2.77;;
60612;SDS011;46443;59.792;17.626;2022-12-22T05:49:17;6.50;;;2.90;;
60612;SDS011;46443;59.792;17.626;2022-12-22T05:51:44;5.53;;;2.33;;
60612;SDS011;46443;59.792;17.626;2022-12-22T05:54:10;7.60;;;2.57;;
60612;SDS011;46443;59.792;17.626;2022-12-22T05:56:36;8.03;;;2.47;;
60612;SDS011;46443;59.792;17.626;2022-12-22T05:59:02;5.80;;;2.30;;
60612;SDS011;46443;59.792;17.626;2022-12-22T06:01:28;7.00;;;2.60;;
60612;SDS011;46443;59.792;17.626;2022-12-22T06:03:54;5.57;;;2.57;;
60612;SDS011;46443;59.792;17.626;2022-12-22T06:06:20;4.20;;;2.00;;
60612;SDS011;46443;59.792;17.626;2022-12-22T06:08:46;5.77;;;2.27;;
60612;SDS011;46443;59.792;17.626;2022-12-22T06:11:12;6.30;;;2.00;;
60612;SDS011;46443;59.792;17.626;2022-12-22T06:13:42;6.22;;;2.75;;
60612;SDS011;46443;59.792;17.626;2022-12-22T06:16:08;4.00;;;2.27;;
60612;SDS011;46443;59.792;17.626;2022-12-22T06:18:34;7.37;;;2.97;;
60612;SDS011;46443;59.792;17.626;2022-12-22T06:21:00;4.53;;;2.53;;
60612;SDS011;46443;59.792;17.626;2022-12-22T06:23:26;5.27;;;2.17;;
60612;SDS011;46443;59.792;17.626;2022-12-22T06:25:56;5.70;;;2.30;;
60612;SDS011;46443;59.792;17.626;2022-12-22T06:28:22;4.70;;;2.08;;
60612;SDS011;46443;59.792;17.626;2022-12-22T06:30:49;5.70;;;2.33;;
60612;SDS011;46443;59.792;17.626;2022-12-22T06:33:15;3.30;;;2.00;;
60612;SDS011;46443;59.792;17.626;2022-12-22T06:35:41;5.73;;;2.30;;
60612;SDS011;46443;59.792;17.626;2022-12-22T06:38:07;5.47;;;2.10;;
60612;SDS011;46443;59.792;17.626;2022-12-22T06:40:33;3.87;;;2.20;;
60612;SDS011;46443;59.792;17.626;2022-12-22T06:42:59;7.57;;;2.50;;
60612;SDS011;46443;59.792;17.626;2022-12-22T06:45:38;5.13;;;2.23;;
60612;SDS011;46443;59.792;17.626;2022-12-22T06:48:05;4.77;;;2.20;;
60612;SDS011;46443;59.792;17.626;2022-12-22T06:50:31;7.73;;;2.70;;
60612;SDS011;46443;59.792;17.626;2022-12-22T06:52:57;9.70;;;2.30;;
60612;SDS011;46443;59.792;17.626;2022-12-22T06:55:24;5.60;;;2.50;;
60612;SDS011;46443;59.792;17.626;2022-12-22T06:57:50;3.60;;;2.10;;
60612;SDS011;46443;59.792;17.626;2022-12-22T07:00:16;4.77;;;2.53;;
60612;SDS011;46443;59.792;17.626;2022-12-22T07:02:42;4.17;;;2.40;;
60612;SDS011;46443;59.792;17.626;2022-12-22T07:05:08;7.27;;;3.00;;
60612;SDS011;46443;59.792;17.626;2022-12-22T07:07:34;4.27;;;2.73;;
60612;SDS011;46443;59.792;17.626;2022-12-22T07:10:00;8.47;;;3.10;;
60612;SDS011;46443;59.792;17.626;2022-12-22T07:12:26;6.13;;;2.80;;
60612;SDS011;46443;59.792;17.626;2022-12-22T07:14:52;6.33;;;3.03;;
60612;SDS011;46443;59.792;17.626;2022-12-22T07:17:18;5.30;;;2.60;;
60612;SDS011;46443;59.792;17.626;2022-12-22T07:19:45;5.80;;;2.70;;
60612;SDS011;46443;59.792;17.626;2022-12-22T07:22:11;4.53;;;2.40;;
60612;SDS011;46443;59.792;17.626;2022-12-22T07:24:37;6.70;;;2.57;;
60612;SDS011;46443;59.792;17.626;2022-12-22T07:27:03;3.87;;;2.37;;
60612;SDS011;46443;59.792;17.626;2022-12-22T07:29:29;4.60;;;2.23;;
60612;SDS011;46443;59.792;17.626;2022-12-22T07:31:55;7.43;;;2.23;;
60612;SDS011;46443;59.792;17.626;2022-12-22T07:34:21;4.80;;;2.50;;
60612;SDS011;46443;59.792;17.626;2022-12-22T07:36:47;4.63;;;2.50;;
60612;SDS011;46443;59.792;17.626;2022-12-22T07:39:13;6.37;;;2.50;;
60612;SDS011;46443;59.792;17.626;2022-12-22T07:41:39;5.90;;;2.27;;
60612;SDS011;46443;59.792;17.626;2022-12-22T07:44:24;5.30;;;2.70;;
60612;SDS011;46443;59.792;17.626;2022-12-22T07:46:50;4.57;;;2.33;;
60612;SDS011;46443;59.792;17.626;2022-12-22T07:49:16;7.77;;;2.53;;
60612;SDS011;46443;59.792;17.626;2022-12-22T07:52:00;4.33;;;2.03;;
60612;SDS011;46443;59.792;17.626;2022-12-22T07:54:27;6.70;;;2.60;;
60612;SDS011;46443;59.792;17.626;2022-12-22T07:56:53;6.10;;;2.77;;
60612;SDS011;46443;59.792;17.626;2022-12-22T07:59:19;6.03;;;2.30;;
60612;SDS011;46443;59.792;17.626;2022-12-22T08:01:46;7.37;;;2.20;;
60612;SDS011;46443;59.792;17.626;2022-12-22T08:04:12;4.20;;;2.40;;
60612;SDS011;46443;59.792;17.626;2022-12-22T08:06:39;7.20;;;2.37;;
60612;SDS011;46443;59.792;17.626;2022-12-22T08:09:05;5.63;;;2.40;;
60612;SDS011;46443;59.792;17.626;2022-12-22T08:11:32;4.43;;;2.17;;
60612;SDS011;46443;59.792;17.626;2022-12-22T08:13:58;3.87;;;2.20;;
60612;SDS011;46443;59.792;17.626;2022-12-22T08:16:24;6.73;;;2.70;;
60612;SDS011;46443;59.792;17.626;2022-12-22T08:18:51;5.67;;;2.53;;
60612;SDS011;46443;59.792;17.626;2022-12-22T08:21:17;4.53;;;2.47;;
60612;SDS011;46443;59.792;17.626;2022-12-22T08:23:43;7.47;;;2.87;;
60612;SDS011;46443;59.792;17.626;2022-12-22T08:28:47;4.57;;;2.17;;
60612;SDS011;46443;59.792;17.626;2022-12-22T08:31:14;4.45;;;2.40;;
60612;SDS011;46443;59.792;17.626;2022-12-22T08:33:40;4.00;;;2.27;;
60612;SDS011;46443;59.792;17.626;2022-12-22T08:36:06;5.47;;;2.23;;
60612;SDS011;46443;59.792;17.626;2022-12-22T08:38:34;6.30;;;2.47;;
60612;SDS011;46443;59.792;17.626;2022-12-22T08:41:01;5.33;;;2.20;;
60612;SDS011;46443;59.792;17.626;2022-12-22T08:43:27;6.30;;;2.17;;
60612;SDS011;46443;59.792;17.626;2022-12-22T08:45:55;7.50;;;2.90;;
60612;SDS011;46443;59.792;17.626;2022-12-22T08:48:21;8.70;;;2.27;;
60612;SDS011;46443;59.792;17.626;2022-12-22T08:50:47;4.40;;;2.20;;
60612;SDS011;46443;59.792;17.626;2022-12-22T08:53:13;8.40;;;2.90;;
60612;SDS011;46443;59.792;17.626;2022-12-22T08:55:39;3.97;;;2.10;;
60612;SDS011;46443;59.792;17.626;2022-12-22T08:58:05;4.53;;;2.13;;
60612;SDS011;46443;59.792;17.626;2022-12-22T09:00:31;7.67;;;2.50;;
60612;SDS011;46443;59.792;17.626;2022-12-22T09:02:57;9.90;;;2.23;;
60612;SDS011;46443;59.792;17.626;2022-12-22T09:05:23;6.40;;;2.30;;
60612;SDS011;46443;59.792;17.626;2022-12-22T09:07:49;7.33;;;2.20;;
60612;SDS011;46443;59.792;17.626;2022-12-22T09:10:15;6.37;;;2.60;;
60612;SDS011;46443;59.792;17.626;2022-12-22T09:12:41;4.07;;;2.20;;
60612;SDS011;46443;59.792;17.626;2022-12-22T09:15:07;6.47;;;2.20;;
60612;SDS011;46443;59.792;17.626;2022-12-22T09:17:34;5.93;;;2.27;;
60612;SDS011;46443;59.792;17.626;2022-12-22T09:20:01;7.77;;;2.33;;
60612;SDS011;46443;59.792;17.626;2022-12-22T09:22:28;11.67;;;2.70;;
60612;SDS011;46443;59.792;17.626;2022-12-22T09:24:54;6.63;;;3.23;;
60612;SDS011;46443;59.792;17.626;2022-12-22T09:27:20;6.33;;;2.77;;
60612;SDS011;46443;59.792;17.626;2022-12-22T09:29:47;8.03;;;2.50;;
60612;SDS011;46443;59.792;17.626;2022-12-22T09:32:13;8.27;;;2.80;;
60612;SDS011;46443;59.792;17.626;2022-12-22T09:34:39;5.93;;;2.40;;
60612;SDS011;46443;59.792;17.626;2022-12-22T09:37:05;6.87;;;2.77;;
60612;SDS011;46443;59.792;17.626;2022-12-22T09:39:31;4.60;;;2.40;;
60612;SDS011;46443;59.792;17.626;2022-12-22T09:41:57;8.87;;;2.60;;
60612;SDS011;46443;59.792;17.626;2022-12-22T09:44:29;8.27;;;2.90;;
60612;SDS011;46443;59.792;17.626;2022-12-22T09:46:57;7.77;;;3.13;;
60612;SDS011;46443;59.792;17.626;2022-12-22T09:49:24;5.70;;;2.33;;
60612;SDS011;46443;59.792;17.626;2022-12-22T09:51:57;11.03;;;2.93;;
60612;SDS011;46443;59.792;17.626;2022-12-22T09:54:24;6.30;;;3.03;;
60612;SDS011;46443;59.792;17.626;2022-12-22T09:56:51;7.63;;;2.63;;
60612;SDS011;46443;59.792;17.626;2022-12-22T09:59:18;7.73;;;2.70;;
60612;SDS011;46443;59.792;17.626;2022-12-22T10:09:22;7.63;;;2.40;;
60612;SDS011;46443;59.792;17.626;2022-12-22T10:11:53;6.23;;;3.10;;
60612;SDS011;46443;59.792;17.626;2022-12-22T10:14:20;8.60;;;2.50;;
60612;SDS011;46443;59.792;17.626;2022-12-22T10:16:46;8.93;;;2.83;;
60612;SDS011;46443;59.792;17.626;2022-12-22T10:19:13;8.83;;;2.47;;
60612;SDS011;46443;59.792;17.626;2022-12-22T10:21:40;7.43;;;2.60;;
60612;SDS011;46443;59.792;17.626;2022-12-22T10:24:16;8.00;;;2.50;;
60612;SDS011;46443;59.792;17.626;2022-12-22T10:26:42;5.77;;;2.37;;
60612;SDS011;46443;59.792;17.626;2022-12-22T10:29:13;6.60;;;2.60;;
60612;SDS011;46443;59.792;17.626;2022-12-22T10:37:28;7.37;;;2.57;;
60612;SDS011;46443;59.792;17.626;2022-12-22T10:39:55;7.07;;;3.03;;
60612;SDS011;46443;59.792;17.626;2022-12-22T10:42:21;7.87;;;3.20;;
60612;SDS011;46443;59.792;17.626;2022-12-22T10:44:47;8.47;;;3.33;;
60612;SDS011;46443;59.792;17.626;2022-12-22T10:47:17;8.83;;;2.70;;
60612;SDS011;46443;59.792;17.626;2022-12-22T10:49:48;9.00;;;2.70;;
60612;SDS011;46443;59.792;17.626;2022-12-22T10:52:16;8.23;;;2.50;;
60612;SDS011;46443;59.792;17.626;2022-12-22T10:54:44;6.80;;;3.00;;
60612;SDS011;46443;59.792;17.626;2022-12-22T10:59:56;9.43;;;3.50;;
60612;SDS011;46443;59.792;17.626;2022-12-22T11:02:24;8.07;;;2.50;;
60612;SDS011;46443;59.792;17.626;2022-12-22T11:04:51;8.50;;;2.67;;
60612;SDS011;46443;59.792;17.626;2022-12-22T11:07:18;6.67;;;2.57;;
60612;SDS011;46443;59.792;17.626;2022-12-22T11:09:44;6.67;;;2.40;;
60612;SDS011;46443;59.792;17.626;2022-12-22T11:14:58;10.27;;;2.70;;
60612;SDS011;46443;59.792;17.626;2022-12-22T11:17:29;8.80;;;2.40;;
60612;SDS011;46443;59.792;17.626;2022-12-22T11:22:48;7.90;;;2.20;;
60612;SDS011;46443;59.792;17.626;2022-12-22T11:30:20;7.27;;;2.70;;
60612;SDS011;46443;59.792;17.626;2022-12-22T11:38:01;5.27;;;2.10;;
60612;SDS011;46443;59.792;17.626;2022-12-22T11:50:55;4.70;;;2.20;;
60612;SDS011;46443;59.792;17.626;2022-12-22T12:01:28;4.73;;;2.20;;
60612;SDS011;46443;59.792;17.626;2022-12-22T12:06:54;5.68;;;2.10;;
60612;SDS011;46443;59.792;17.626;2022-12-22T12:16:57;5.00;;;2.10;;
60612;SDS011;46443;59.792;17.626;2022-12-22T12:24:32;10.32;;;2.90;;
60612;SDS011;46443;59.792;17.626;2022-12-22T12:32:41;6.20;;;2.00;;
60612;SDS011;46443;59.792;17.626;2022-12-22T12:35:17;11.27;;;2.47;;
60612;SDS011;46443;59.792;17.626;2022-12-22T12:37:47;8.03;;;2.50;;
60612;SDS011;46443;59.792;17.626;2022-12-22T12:42:42;4.60;;;1.73;;
60612;SDS011;46443;59.792;17.626;2022-12-22T12:47:53;6.13;;;1.83;;
60612;SDS011;46443;59.792;17.626;2022-12-22T12:50:39;6.20;;;1.90;;
60612;SDS011;46443;59.792;17.626;2022-12-22T12:53:07;6.63;;;2.40;;
60612;SDS011;46443;59.792;17.626;2022-12-22T12:58:03;8.10;;;2.50;;
60612;SDS011;46443;59.792;17.626;2022-12-22T13:08:03;8.97;;;2.70;;
60612;SDS011;46443;59.792;17.626;2022-12-22T13:10:30;4.23;;;2.03;;
60612;SDS011;46443;59.792;17.626;2022-12-22T13:12:56;6.90;;;2.33;;
60612;SDS011;46443;59.792;17.626;2022-12-22T13:15:33;4.67;;;2.03;;
60612;SDS011;46443;59.792;17.626;2022-12-22T13:18:00;7.23;;;2.00;;
60612;SDS011;46443;59.792;17.626;2022-12-22T13:20:31;7.73;;;2.30;;
60612;SDS011;46443;59.792;17.626;2022-12-22T13:22:59;5.67;;;2.10;;
60612;SDS011;46443;59.792;17.626;2022-12-22T13:28:00;7.57;;;2.20;;
60612;SDS011;46443;59.792;17.626;2022-12-22T13:30:28;6.73;;;2.37;;
60612;SDS011;46443;59.792;17.626;2022-12-22T13:32:55;6.27;;;2.30;;
60612;SDS011;46443;59.792;17.626;2022-12-22T13:35:31;6.13;;;2.27;;
60612;SDS011;46443;59.792;17.626;2022-12-22T13:37:59;8.37;;;2.50;;
60612;SDS011;46443;59.792;17.626;2022-12-22T13:40:27;5.03;;;2.13;;
60612;SDS011;46443;59.792;17.626;2022-12-22T13:45:28;5.57;;;2.33;;
60612;SDS011;46443;59.792;17.626;2022-12-22T13:47:56;9.43;;;2.70;;
60612;SDS011;46443;59.792;17.626;2022-12-22T13:50:25;7.67;;;3.10;;
60612;SDS011;46443;59.792;17.626;2022-12-22T13:52:52;5.30;;;2.30;;
60612;SDS011;46443;59.792;17.626;2022-12-22T13:55:22;6.80;;;2.83;;
60612;SDS011;46443;59.792;17.626;2022-12-22T13:57:50;11.82;;;2.83;;
60612;SDS011;46443;59.792;17.626;2022-12-22T14:00:17;10.20;;;2.80;;
60612;SDS011;46443;59.792;17.626;2022-12-22T14:02:44;9.70;;;2.70;;
60612;SDS011;46443;59.792;17.626;2022-12-22T14:05:10;5.80;;;2.57;;
60612;SDS011;46443;59.792;17.626;2022-12-22T14:07:37;12.63;;;2.80;;
60612;SDS011;46443;59.792;17.626;2022-12-22T14:10:03;5.77;;;2.53;;
60612;SDS011;46443;59.792;17.626;2022-12-22T14:12:31;7.93;;;2.80;;
60612;SDS011;46443;59.792;17.626;2022-12-22T14:14:59;9.75;;;3.05;;
60612;SDS011;46443;59.792;17.626;2022-12-22T14:17:33;6.47;;;3.10;;
60612;SDS011;46443;59.792;17.626;2022-12-22T14:20:01;7.97;;;2.70;;
60612;SDS011;46443;59.792;17.626;2022-12-22T14:22:29;5.70;;;2.67;;
60612;SDS011;46443;59.792;17.626;2022-12-22T14:24:59;6.57;;;2.40;;
60612;SDS011;46443;59.792;17.626;2022-12-22T14:29:54;5.88;;;2.40;;
60612;SDS011;46443;59.792;17.626;2022-12-22T14:32:32;6.53;;;2.83;;
60612;SDS011;46443;59.792;17.626;2022-12-22T14:34:59;6.50;;;3.07;;
60612;SDS011;46443;59.792;17.626;2022-12-22T14:37:25;7.63;;;2.90;;
60612;SDS011;46443;59.792;17.626;2022-12-22T14:39:55;9.13;;;3.33;;
60612;SDS011;46443;59.792;17.626;2022-12-22T14:42:21;9.30;;;2.90;;
60612;SDS011;46443;59.792;17.626;2022-12-22T14:44:47;6.33;;;3.63;;
60612;SDS011;46443;59.792;17.626;2022-12-22T14:47:15;7.90;;;3.20;;
60612;SDS011;46443;59.792;17.626;2022-12-22T14:49:53;8.90;;;3.20;;
60612;SDS011;46443;59.792;17.626;2022-12-22T14:52:21;10.97;;;3.33;;
60612;SDS011;46443;59.792;17.626;2022-12-22T14:54:50;8.10;;;3.10;;
60612;SDS011;46443;59.792;17.626;2022-12-22T14:57:23;8.47;;;2.90;;
60612;SDS011;46443;59.792;17.626;2022-12-22T14:59:57;11.67;;;2.83;;
60612;SDS011;46443;59.792;17.626;2022-12-22T15:02:48;6.97;;;3.00;;
60612;SDS011;46443;59.792;17.626;2022-12-22T15:05:29;6.63;;;3.23;;
60612;SDS011;46443;59.792;17.626;2022-12-22T15:07:57;9.03;;;2.60;;
60612;SDS011;46443;59.792;17.626;2022-12-22T15:10:25;8.83;;;3.27;;
60612;SDS011;46443;59.792;17.626;2022-12-22T15:12:53;6.23;;;3.37;;
60612;SDS011;46443;59.792;17.626;2022-12-22T15:15:21;11.88;;;3.72;;
60612;SDS011;46443;59.792;17.626;2022-12-22T15:17:48;8.30;;;2.97;;
60612;SDS011;46443;59.792;17.626;2022-12-22T15:20:17;8.10;;;3.53;;
60612;SDS011;46443;59.792;17.626;2022-12-22T15:22:43;7.77;;;3.00;;
60612;SDS011;46443;59.792;17.626;2022-12-22T15:25:13;7.97;;;2.80;;
60612;SDS011;46443;59.792;17.626;2022-12-22T15:27:39;8.93;;;3.00;;
60612;SDS011;46443;59.792;17.626;2022-12-22T15:30:06;8.93;;;3.03;;
60612;SDS011;46443;59.792;17.626;2022-12-22T15:32:32;6.63;;;2.87;;
60612;SDS011;46443;59.792;17.626;2022-12-22T15:34:59;7.93;;;3.30;;
60612;SDS011;46443;59.792;17.626;2022-12-22T15:37:27;8.67;;;3.30;;
60612;SDS011;46443;59.792;17.626;2022-12-22T15:39:53;9.43;;;3.43;;
60612;SDS011;46443;59.792;17.626;2022-12-22T15:42:19;11.63;;;3.47;;
60612;SDS011;46443;59.792;17.626;2022-12-22T15:44:45;8.90;;;2.97;;
60612;SDS011;46443;59.792;17.626;2022-12-22T15:47:11;7.97;;;3.10;;
60612;SDS011;46443;59.792;17.626;2022-12-22T15:49:38;9.00;;;3.10;;
60612;SDS011;46443;59.792;17.626;2022-12-22T15:52:04;6.57;;;3.33;;
60612;SDS011;46443;59.792;17.626;2022-12-22T15:54:31;8.60;;;3.57;;
60612;SDS011;46443;59.792;17.626;2022-12-22T15:56:57;6.13;;;3.00;;
60612;SDS011;46443;59.792;17.626;2022-12-22T15:59:25;9.80;;;3.80;;
60612;SDS011;46443;59.792;17.626;2022-12-22T16:01:52;9.33;;;3.33;;
60612;SDS011;46443;59.792;17.626;2022-12-22T16:04:18;9.33;;;3.90;;
60612;SDS011;46443;59.792;17.626;2022-12-22T16:06:44;13.03;;;4.30;;
60612;SDS011;46443;59.792;17.626;2022-12-22T16:09:19;11.60;;;3.60;;
60612;SDS011;46443;59.792;17.626;2022-12-22T16:11:47;10.37;;;3.67;;
60612;SDS011;46443;59.792;17.626;2022-12-22T16:14:13;11.87;;;3.57;;
60612;SDS011;46443;59.792;17.626;2022-12-22T16:16:39;8.93;;;3.67;;
60612;SDS011;46443;59.792;17.626;2022-12-22T16:19:12;8.93;;;4.03;;
60612;SDS011;46443;59.792;17.626;2022-12-22T16:21:39;10.50;;;3.73;;
60612;SDS011;46443;59.792;17.626;2022-12-22T16:24:05;10.30;;;3.47;;
60612;SDS011;46443;59.792;17.626;2022-12-22T16:26:31;9.97;;;3.40;;
60612;SDS011;46443;59.792;17.626;2022-12-22T16:28:57;8.50;;;3.43;;
60612;SDS011;46443;59.792;17.626;2022-12-22T16:31:24;13.07;;;3.47;;
60612;SDS011;46443;59.792;17.626;2022-12-22T16:33:50;8.53;;;3.57;;
60612;SDS011;46443;59.792;17.626;2022-12-22T16:36:17;8.37;;;3.83;;
60612;SDS011;46443;59.792;17.626;2022-12-22T16:38:43;10.00;;;3.50;;
60612;SDS011;46443;59.792;17.626;2022-12-22T16:41:22;10.53;;;4.10;;
60612;SDS011;46443;59.792;17.626;2022-12-22T16:43:49;8.27;;;3.30;;
60612;SDS011;46443;59.792;17.626;2022-12-22T16:46:17;10.63;;;3.63;;
60612;SDS011;46443;59.792;17.626;2022-12-22T16:48:53;10.03;;;2.97;;
60612;SDS011;46443;59.792;17.626;2022-12-22T16:51:21;9.73;;;3.93;;